Time,TemperatureF,DewpointF,PressureIn,WindDirection,WindDirectionDegrees,WindSpeedMPH,WindSpeedGustMPH,Humidity,HourlyPrecipIn,Conditions,Clouds,dailyrainin,SoftwareType,DateUTC
2013-06-09 00:05:00,59.9,57.6,29.94,North,0,0.0,1.0,92,0.00,,,-99.99,WeatherLink 5.7,2013-06-09 04:05:00,
2013-06-09 00:10:00,59.8,57.5,29.94,North,0,0.0,2.0,92,0.00,,,-99.99,WeatherLink 5.7,2013-06-09 04:10:00,
2013-06-09 00:15:00,59.6,57.3,29.94,North,-999,0.0,0.0,92,0.00,,,-99.99,WeatherLink 5.7,2013-06-09 04:15:00,
2013-06-09 00:20:00,59.6,57.3,29.94,North,-999,0.0,0.0,92,0.00,,,-99.99,WeatherLink 5.7,2013-06-09 04:20:00,
2013-06-09 00:30:00,59.5,57.2,29.94,North,-999,0.0,0.0,92,0.00,,,-99.99,WeatherLink 5.7,2013-06-09 04:30:00,
2013-06-09 00:40:00,59.3,57.0,29.95,North,-999,0.0,0.0,92,0.00,,,-99.99,WeatherLink 5.7,2013-06-09 04:40:00,
2013-06-09 00:50:00,59.2,56.9,29.95,North,-999,0.0,0.0,92,0.00,,,-99.99,WeatherLink 5.7,2013-06-09 04:50:00,
2013-06-09 00:55:00,59.0,57.0,29.95,North,-999,0.0,0.0,93,0.00,,,-99.99,WeatherLink 5.7,2013-06-09 04:55:00,
2013-06-09 01:05:00,58.9,56.9,29.96,North,-999,0.0,0.0,93,0.00,,,-99.99,WeatherLink 5.7,2013-06-09 05:05:00,
2013-06-09 01:15:00,58.7,56.7,29.96,North,-999,0.0,0.0,93,0.00,,,-99.99,WeatherLink 5.7,2013-06-09 05:15:00,
2013-06-09 01:25:00,58.7,56.7,29.96,North,-999,0.0,0.0,93,0.00,,,-99.99,WeatherLink 5.7,2013-06-09 05:25:00,
2013-06-09 01:35:00,58.6,56.6,29.96,North,-999,0.0,0.0,93,0.00,,,-99.99,WeatherLink 5.7,2013-06-09 05:35:00,
2013-06-09 01:45:00,58.4,56.4,29.96,North,-999,0.0,0.0,93,0.00,,,-99.99,WeatherLink 5.7,2013-06-09 05:45:00,
2013-06-09 01:55:00,58.1,56.4,29.97,North,-999,0.0,0.0,94,0.00,,,-99.99,WeatherLink 5.7,2013-06-09 05:55:00,
2013-06-09 02:00:00,58.1,56.4,29.97,North,-999,0.0,0.0,94,0.00,,,-99.99,WeatherLink 5.7,2013-06-09 06:00:00,
2013-06-09 02:10:00,57.8,56.1,29.97,North,-999,0.0,0.0,94,0.00,,,-99.99,WeatherLink 5.7,2013-06-09 06:10:00,
2013-06-09 02:15:00,57.8,56.1,29.97,North,-999,0.0,0.0,94,0.00,,,-99.99,WeatherLink 5.7,2013-06-09 06:15:00,
2013-06-09 02:25:00,57.6,55.9,29.97,North,-999,0.0,0.0,94,0.00,,,-99.99,WeatherLink 5.7,2013-06-09 06:25:00,
2013-06-09 02:30:00,57.5,55.8,29.97,North,-999,0.0,0.0,94,0.00,,,-99.99,WeatherLink 5.7,2013-06-09 06:30:00,
2013-06-09 02:40:00,57.3,55.6,29.97,North,-999,0.0,0.0,94,0.00,,,-99.99,WeatherLink 5.7,2013-06-09 06:40:00,
2013-06-09 02:50:00,57.2,55.8,29.97,North,-999,0.0,0.0,95,0.00,,,-99.99,WeatherLink 5.7,2013-06-09 06:50:00,
2013-06-09 02:55:00,57.2,55.8,29.97,North,-999,0.0,0.0,95,0.00,,,-99.99,WeatherLink 5.7,2013-06-09 06:55:00,
2013-06-09 03:05:00,56.9,55.5,29.98,North,-999,0.0,0.0,95,0.00,,,-99.99,WeatherLink 5.7,2013-06-09 07:05:00,
2013-06-09 03:15:00,56.9,55.5,29.98,North,-999,0.0,0.0,95,0.00,,,-99.99,WeatherLink 5.7,2013-06-09 07:15:00,
2013-06-09 03:20:00,56.9,55.5,29.98,North,-999,0.0,0.0,95,0.00,,,-99.99,WeatherLink 5.7,2013-06-09 07:20:00,
2013-06-09 03:25:00,56.7,55.3,29.98,North,-999,0.0,0.0,95,0.00,,,-99.99,WeatherLink 5.7,2013-06-09 07:25:00,
2013-06-09 03:35:00,56.6,55.2,29.98,North,-999,0.0,0.0,95,0.00,,,-99.99,WeatherLink 5.7,2013-06-09 07:35:00,
2013-06-09 03:45:00,56.3,54.9,29.98,North,-999,0.0,0.0,95,0.00,,,-99.99,WeatherLink 5.7,2013-06-09 07:45:00,
2013-06-09 03:55:00,56.2,54.8,29.98,North,-999,0.0,0.0,95,0.00,,,-99.99,WeatherLink 5.7,2013-06-09 07:55:00,
2013-06-09 04:00:00,56.0,54.6,29.98,North,-999,0.0,0.0,95,0.00,,,-99.99,WeatherLink 5.7,2013-06-09 08:00:00,
2013-06-09 04:10:00,56.0,54.9,29.98,North,-999,0.0,0.0,96,0.00,,,-99.99,WeatherLink 5.7,2013-06-09 08:10:00,
2013-06-09 04:20:00,56.0,54.9,29.99,North,-999,0.0,0.0,96,0.00,,,-99.99,WeatherLink 5.7,2013-06-09 08:20:00,
2013-06-09 04:30:00,55.9,54.8,29.99,North,-999,0.0,0.0,96,0.00,,,-99.99,WeatherLink 5.7,2013-06-09 08:30:00,
2013-06-09 04:40:00,55.7,54.6,29.99,North,-999,0.0,0.0,96,0.00,,,-99.99,WeatherLink 5.7,2013-06-09 08:40:00,
2013-06-09 04:50:00,55.6,54.5,29.99,North,-999,0.0,0.0,96,0.00,,,-99.99,WeatherLink 5.7,2013-06-09 08:50:00,
2013-06-09 05:00:00,55.3,54.2,29.99,North,-999,0.0,0.0,96,0.00,,,-99.99,WeatherLink 5.7,2013-06-09 09:00:00,
2013-06-09 05:10:00,55.1,54.0,29.99,North,-999,0.0,0.0,96,0.00,,,-99.99,WeatherLink 5.7,2013-06-09 09:10:00,
2013-06-09 05:15:00,55.1,54.0,29.99,North,-999,0.0,0.0,96,0.00,,,-99.99,WeatherLink 5.7,2013-06-09 09:15:00,
2013-06-09 05:25:00,55.0,53.9,30.00,North,-999,0.0,0.0,96,0.00,,,-99.99,WeatherLink 5.7,2013-06-09 09:25:00,
2013-06-09 05:35:00,55.0,53.9,30.00,North,-999,0.0,0.0,96,0.00,,,-99.99,WeatherLink 5.7,2013-06-09 09:35:00,
2013-06-09 05:40:00,55.0,53.9,30.00,North,-999,0.0,0.0,96,0.00,,,-99.99,WeatherLink 5.7,2013-06-09 09:40:00,
2013-06-09 05:45:00,55.0,53.9,30.00,North,-999,0.0,0.0,96,0.00,,,-99.99,WeatherLink 5.7,2013-06-09 09:45:00,
2013-06-09 05:55:00,55.0,53.9,30.00,North,-999,0.0,0.0,96,0.00,,,-99.99,WeatherLink 5.7,2013-06-09 09:55:00,
2013-06-09 06:05:00,55.0,53.9,30.01,North,-999,0.0,0.0,96,0.00,,,-99.99,WeatherLink 5.7,2013-06-09 10:05:00,
2013-06-09 06:15:00,55.3,54.5,30.01,North,-999,0.0,0.0,97,0.00,,,-99.99,WeatherLink 5.7,2013-06-09 10:15:00,
2013-06-09 06:25:00,55.6,54.8,30.01,North,-999,0.0,0.0,97,0.00,,,-99.99,WeatherLink 5.7,2013-06-09 10:25:00,
2013-06-09 06:30:00,55.9,55.1,30.01,North,-999,0.0,0.0,97,0.00,,,-99.99,WeatherLink 5.7,2013-06-09 10:30:00,
2013-06-09 06:40:00,56.2,55.4,30.01,North,-999,0.0,0.0,97,0.00,,,-99.99,WeatherLink 5.7,2013-06-09 10:40:00,
2013-06-09 06:45:00,56.3,55.5,30.01,North,-999,0.0,0.0,97,0.00,,,-99.99,WeatherLink 5.7,2013-06-09 10:45:00,
2013-06-09 06:55:00,56.5,55.7,30.02,North,-999,0.0,0.0,97,0.00,,,-99.99,WeatherLink 5.7,2013-06-09 10:55:00,
2013-06-09 07:05:00,56.7,55.9,30.03,North,-999,0.0,0.0,97,0.00,,,-99.99,WeatherLink 5.7,2013-06-09 11:05:00,
2013-06-09 07:15:00,57.2,56.4,30.03,North,0,0.0,1.0,97,0.00,,,-99.99,WeatherLink 5.7,2013-06-09 11:15:00,
2013-06-09 07:25:00,57.6,56.8,30.03,North,0,0.0,1.0,97,0.00,,,-99.99,WeatherLink 5.7,2013-06-09 11:25:00,
2013-06-09 07:30:00,58.0,56.9,30.03,North,0,0.0,1.0,96,0.00,,,-99.99,WeatherLink 5.7,2013-06-09 11:30:00,
2013-06-09 07:40:00,58.6,57.2,30.04,North,0,0.0,1.0,95,0.00,,,-99.99,WeatherLink 5.7,2013-06-09 11:40:00,
2013-06-09 07:45:00,58.9,57.2,30.04,North,0,0.0,1.0,94,0.00,,,-99.99,WeatherLink 5.7,2013-06-09 11:45:00,
2013-06-09 07:55:00,59.6,57.3,30.04,West,270,0.0,2.0,92,0.00,,,-99.99,WeatherLink 5.7,2013-06-09 11:55:00,
2013-06-09 08:05:00,60.4,57.1,30.04,WSW,247,1.0,5.0,89,0.00,,,-99.99,WeatherLink 5.7,2013-06-09 12:05:00,
2013-06-09 08:10:00,60.9,57.0,30.04,West,270,1.0,7.0,87,0.00,,,-99.99,WeatherLink 5.7,2013-06-09 12:10:00,
2013-06-09 08:20:00,61.8,56.9,30.04,SW,225,1.0,10.0,84,0.00,,,-99.99,WeatherLink 5.7,2013-06-09 12:20:00,
2013-06-09 08:30:00,62.6,57.0,30.04,West,270,1.0,3.0,82,0.00,,,-99.99,WeatherLink 5.7,2013-06-09 12:30:00,
2013-06-09 08:35:00,63.1,56.5,30.05,WSW,247,1.0,6.0,79,0.00,,,-99.99,WeatherLink 5.7,2013-06-09 12:35:00,
2013-06-09 08:40:00,63.5,56.9,30.05,West,270,1.0,5.0,79,0.00,,,-99.99,WeatherLink 5.7,2013-06-09 12:40:00,
2013-06-09 08:50:00,64.8,56.7,30.05,WNW,292,1.0,5.0,75,0.00,,,-99.99,WeatherLink 5.7,2013-06-09 12:50:00,
2013-06-09 09:00:00,66.9,57.6,30.05,North,0,2.0,5.0,72,0.00,,,-99.99,WeatherLink 5.7,2013-06-09 13:00:00,
2013-06-09 09:10:00,68.6,56.8,30.05,NNW,337,1.0,4.0,66,0.00,,,-99.99,WeatherLink 5.7,2013-06-09 13:10:00,
2013-06-09 09:15:00,69.6,58.2,30.05,NNW,337,1.0,2.0,67,0.00,,,-99.99,WeatherLink 5.7,2013-06-09 13:15:00,
2013-06-09 09:25:00,71.5,58.2,30.05,NNE,22,1.0,3.0,63,0.00,,,-99.99,WeatherLink 5.7,2013-06-09 13:25:00,
2013-06-09 09:35:00,72.8,57.2,30.05,NW,315,2.0,5.0,58,0.00,,,-99.99,WeatherLink 5.7,2013-06-09 13:35:00,
2013-06-09 09:45:00,74.4,55.6,30.05,West,270,2.0,6.0,52,0.00,,,-99.99,WeatherLink 5.7,2013-06-09 13:45:00,
2013-06-09 09:55:00,74.9,57.1,30.05,West,270,2.0,7.0,54,0.00,,,-99.99,WeatherLink 5.7,2013-06-09 13:55:00,
2013-06-09 10:05:00,75.6,57.3,30.05,North,0,1.0,6.0,53,0.00,,,-99.99,WeatherLink 5.7,2013-06-09 14:05:00,
2013-06-09 10:15:00,76.5,55.3,30.05,NW,315,2.0,5.0,48,0.00,,,-99.99,WeatherLink 5.7,2013-06-09 14:15:00,
2013-06-09 10:20:00,77.4,55.0,30.05,West,270,2.0,5.0,46,0.00,,,-99.99,WeatherLink 5.7,2013-06-09 14:20:00,
2013-06-09 10:30:00,78.1,55.6,30.05,NW,315,1.0,4.0,46,0.00,,,-99.99,WeatherLink 5.7,2013-06-09 14:30:00,
2013-06-09 10:35:00,78.3,55.2,30.04,SW,225,2.0,6.0,45,0.00,,,-99.99,WeatherLink 5.7,2013-06-09 14:35:00,
2013-06-09 10:45:00,79.0,55.2,30.04,WNW,292,1.0,3.0,44,0.00,,,-99.99,WeatherLink 5.7,2013-06-09 14:45:00,
2013-06-09 10:55:00,79.6,54.5,30.04,West,270,1.0,6.0,42,0.00,,,-99.99,WeatherLink 5.7,2013-06-09 14:55:00,
2013-06-09 11:05:00,80.1,54.3,30.04,North,0,2.0,3.0,41,0.00,,,-99.99,WeatherLink 5.7,2013-06-09 15:05:00,
2013-06-09 11:15:00,80.3,53.8,30.04,WSW,247,2.0,6.0,40,0.00,,,-99.99,WeatherLink 5.7,2013-06-09 15:15:00,
2013-06-09 11:25:00,80.7,53.4,30.04,WSW,247,2.0,10.0,39,0.00,,,-99.99,WeatherLink 5.7,2013-06-09 15:25:00,
2013-06-09 11:35:00,81.4,54.8,30.04,WSW,247,1.0,3.0,40,0.00,,,-99.99,WeatherLink 5.7,2013-06-09 15:35:00,
2013-06-09 11:45:00,80.7,54.8,30.04,SE,135,1.0,3.0,41,0.00,,,-99.99,WeatherLink 5.7,2013-06-09 15:45:00,
2013-06-09 11:55:00,81.6,55.6,30.04,ESE,112,1.0,3.0,41,0.00,,,-99.99,WeatherLink 5.7,2013-06-09 15:55:00,
2013-06-09 12:05:00,82.0,57.9,30.03,NW,315,1.0,5.0,44,0.00,,,-99.99,WeatherLink 5.7,2013-06-09 16:05:00,
2013-06-09 12:15:00,83.0,51.7,30.03,West,270,2.0,5.0,34,0.00,,,-99.99,WeatherLink 5.7,2013-06-09 16:15:00,
2013-06-09 12:25:00,82.6,54.4,30.03,North,0,2.0,8.0,38,0.00,,,-99.99,WeatherLink 5.7,2013-06-09 16:25:00,
2013-06-09 12:30:00,83.2,55.7,30.03,West,270,1.0,3.0,39,0.00,,,-99.99,WeatherLink 5.7,2013-06-09 16:30:00,
2013-06-09 12:40:00,83.6,55.3,30.02,West,270,3.0,7.0,38,0.00,,,-99.99,WeatherLink 5.7,2013-06-09 16:40:00,
2013-06-09 12:50:00,82.6,54.4,30.03,North,0,1.0,3.0,38,0.00,,,-99.99,WeatherLink 5.7,2013-06-09 16:50:00,
2013-06-09 12:55:00,81.8,55.1,30.03,North,0,1.0,3.0,40,0.00,,,-99.99,WeatherLink 5.7,2013-06-09 16:55:00,
2013-06-09 13:05:00,83.0,54.8,30.02,NW,315,2.0,6.0,38,0.00,,,-99.99,WeatherLink 5.7,2013-06-09 17:05:00,
2013-06-09 13:15:00,83.6,52.3,30.02,West,270,2.0,5.0,34,0.00,,,-99.99,WeatherLink 5.7,2013-06-09 17:15:00,
2013-06-09 13:25:00,82.8,54.6,30.02,WSW,247,2.0,6.0,38,0.00,,,-99.99,WeatherLink 5.7,2013-06-09 17:25:00,
2013-06-09 13:35:00,82.6,55.1,30.02,NNW,337,2.0,7.0,39,0.00,,,-99.99,WeatherLink 5.7,2013-06-09 17:35:00,
2013-06-09 13:45:00,82.6,57.8,30.02,WSW,247,2.0,6.0,43,0.00,,,-99.99,WeatherLink 5.7,2013-06-09 17:45:00,
2013-06-09 13:55:00,81.4,55.4,30.01,WNW,292,1.0,5.0,41,0.00,,,-99.99,WeatherLink 5.7,2013-06-09 17:55:00,
2013-06-09 14:00:00,81.4,54.8,30.01,WSW,247,1.0,3.0,40,0.00,,,-99.99,WeatherLink 5.7,2013-06-09 18:00:00,
2013-06-09 14:10:00,81.1,55.2,30.01,West,270,1.0,6.0,41,0.00,,,-99.99,WeatherLink 5.7,2013-06-09 18:10:00,
2013-06-09 14:15:00,81.1,54.5,30.01,NW,315,2.0,3.0,40,0.00,,,-99.99,WeatherLink 5.7,2013-06-09 18:15:00,
2013-06-09 14:20:00,81.2,55.9,30.01,NW,315,1.0,3.0,42,0.00,,,-99.99,WeatherLink 5.7,2013-06-09 18:20:00,
2013-06-09 14:30:00,81.6,58.2,30.01,SW,225,1.0,3.0,45,0.00,,,-99.99,WeatherLink 5.7,2013-06-09 18:30:00,
2013-06-09 14:40:00,82.0,55.3,30.01,WSW,247,3.0,11.0,40,0.00,,,-99.99,WeatherLink 5.7,2013-06-09 18:40:00,
2013-06-09 14:45:00,82.2,54.8,30.01,WSW,247,3.0,6.0,39,0.00,,,-99.99,WeatherLink 5.7,2013-06-09 18:45:00,
2013-06-09 14:50:00,82.6,55.1,30.01,WSW,247,2.0,6.0,39,0.00,,,-99.99,WeatherLink 5.7,2013-06-09 18:50:00,
2013-06-09 14:55:00,82.6,56.5,30.01,NNW,337,2.0,4.0,41,0.00,,,-99.99,WeatherLink 5.7,2013-06-09 18:55:00,
2013-06-09 15:00:00,82.0,54.6,30.01,NW,315,2.0,5.0,39,0.00,,,-99.99,WeatherLink 5.7,2013-06-09 19:00:00,
2013-06-09 15:05:00,81.6,56.3,30.02,NW,315,2.0,5.0,42,0.00,,,-99.99,WeatherLink 5.7,2013-06-09 19:05:00,
2013-06-09 15:15:00,80.9,56.9,30.02,NW,315,0.0,3.0,44,0.00,,,-99.99,WeatherLink 5.7,2013-06-09 19:15:00,
2013-06-09 15:20:00,80.9,55.0,30.02,WSW,247,1.0,6.0,41,0.00,,,-99.99,WeatherLink 5.7,2013-06-09 19:20:00,
2013-06-09 15:25:00,81.1,55.2,30.02,West,270,1.0,4.0,41,0.00,,,-99.99,WeatherLink 5.7,2013-06-09 19:25:00,
2013-06-09 15:30:00,81.2,55.9,30.02,North,0,1.0,4.0,42,0.00,,,-99.99,WeatherLink 5.7,2013-06-09 19:30:00,
2013-06-09 15:35:00,81.4,58.0,30.02,North,0,1.0,3.0,45,0.00,,,-99.99,WeatherLink 5.7,2013-06-09 19:35:00,
2013-06-09 15:40:00,81.6,56.3,30.02,NNE,22,1.0,4.0,42,0.00,,,-99.99,WeatherLink 5.7,2013-06-09 19:40:00,
2013-06-09 15:50:00,81.4,54.8,30.02,NNW,337,2.0,7.0,40,0.00,,,-99.99,WeatherLink 5.7,2013-06-09 19:50:00,
2013-06-09 15:55:00,81.6,54.9,30.02,WNW,292,2.0,5.0,40,0.00,,,-99.99,WeatherLink 5.7,2013-06-09 19:55:00,
2013-06-09 16:00:00,81.4,55.4,30.02,West,270,1.0,4.0,41,0.00,,,-99.99,WeatherLink 5.7,2013-06-09 20:00:00,
2013-06-09 16:05:00,81.4,56.1,30.02,NNW,337,1.0,3.0,42,0.00,,,-99.99,WeatherLink 5.7,2013-06-09 20:05:00,
2013-06-09 16:10:00,81.2,54.6,30.02,North,0,2.0,7.0,40,0.00,,,-99.99,WeatherLink 5.7,2013-06-09 20:10:00,
2013-06-09 16:20:00,80.7,54.8,30.01,WSW,247,2.0,5.0,41,0.00,,,-99.99,WeatherLink 5.7,2013-06-09 20:20:00,
2013-06-09 16:30:00,80.1,54.3,30.01,SW,225,1.0,5.0,41,0.00,,,-99.99,WeatherLink 5.7,2013-06-09 20:30:00,
2013-06-09 16:40:00,80.9,57.6,30.02,WNW,292,1.0,5.0,45,0.00,,,-99.99,WeatherLink 5.7,2013-06-09 20:40:00,
2013-06-09 16:45:00,81.2,54.6,30.02,North,0,1.0,3.0,40,0.00,,,-99.99,WeatherLink 5.7,2013-06-09 20:45:00,
2013-06-09 16:55:00,81.4,54.1,30.02,North,0,1.0,3.0,39,0.00,,,-99.99,WeatherLink 5.7,2013-06-09 20:55:00,
2013-06-09 17:00:00,81.2,54.6,30.02,NNW,337,1.0,2.0,40,0.00,,,-99.99,WeatherLink 5.7,2013-06-09 21:00:00,
2013-06-09 17:10:00,80.9,55.0,30.02,North,0,0.0,2.0,41,0.00,,,-99.99,WeatherLink 5.7,2013-06-09 21:10:00,
2013-06-09 17:15:00,80.5,55.3,30.02,SW,225,1.0,3.0,42,0.00,,,-99.99,WeatherLink 5.7,2013-06-09 21:15:00,
2013-06-09 17:20:00,80.1,56.2,30.02,ESE,112,1.0,3.0,44,0.00,,,-99.99,WeatherLink 5.7,2013-06-09 21:20:00,
2013-06-09 17:25:00,79.9,54.1,30.02,ESE,112,1.0,2.0,41,0.00,,,-99.99,WeatherLink 5.7,2013-06-09 21:25:00,
2013-06-09 17:35:00,79.4,53.6,30.02,North,0,2.0,5.0,41,0.00,,,-99.99,WeatherLink 5.7,2013-06-09 21:35:00,
2013-06-09 17:40:00,79.0,55.8,30.02,North,0,1.0,7.0,45,0.00,,,-99.99,WeatherLink 5.7,2013-06-09 21:40:00,
2013-06-09 17:45:00,78.8,55.7,30.02,NNW,337,0.0,3.0,45,0.00,,,-99.99,WeatherLink 5.7,2013-06-09 21:45:00,
2013-06-09 17:55:00,78.5,56.0,30.02,SSW,202,0.0,2.0,46,0.00,,,-99.99,WeatherLink 5.7,2013-06-09 21:55:00,
2013-06-09 18:00:00,78.1,56.2,30.02,ENE,67,0.0,3.0,47,0.00,,,-99.99,WeatherLink 5.7,2013-06-09 22:00:00,
2013-06-09 18:10:00,77.4,56.2,30.02,ESE,112,0.0,2.0,48,0.00,,,-99.99,WeatherLink 5.7,2013-06-09 22:10:00,
2013-06-09 18:20:00,76.8,54.5,30.03,NW,315,0.0,2.0,46,0.00,,,-99.99,WeatherLink 5.7,2013-06-09 22:20:00,
2013-06-09 18:30:00,76.5,56.5,30.03,North,-999,0.0,0.0,50,0.00,,,-99.99,WeatherLink 5.7,2013-06-09 22:30:00,
2013-06-09 18:40:00,76.1,54.4,30.03,NW,315,0.0,1.0,47,0.00,,,-99.99,WeatherLink 5.7,2013-06-09 22:40:00,
2013-06-09 18:45:00,76.1,56.7,30.03,West,270,0.0,4.0,51,0.00,,,-99.99,WeatherLink 5.7,2013-06-09 22:45:00,
2013-06-09 18:55:00,75.8,54.1,30.03,WNW,292,1.0,3.0,47,0.00,,,-99.99,WeatherLink 5.7,2013-06-09 22:55:00,
2013-06-09 19:05:00,75.4,54.3,30.04,WSW,247,0.0,2.0,48,0.00,,,-99.99,WeatherLink 5.7,2013-06-09 23:05:00,
2013-06-09 19:10:00,75.3,55.4,30.04,WSW,247,0.0,2.0,50,0.00,,,-99.99,WeatherLink 5.7,2013-06-09 23:10:00,
2013-06-09 19:20:00,74.6,54.7,30.04,North,-999,0.0,0.0,50,0.00,,,-99.99,WeatherLink 5.7,2013-06-09 23:20:00,
2013-06-09 19:25:00,74.4,54.5,30.04,North,-999,0.0,0.0,50,0.00,,,-99.99,WeatherLink 5.7,2013-06-09 23:25:00,
2013-06-09 19:35:00,73.9,55.7,30.05,North,-999,0.0,0.0,53,0.00,,,-99.99,WeatherLink 5.7,2013-06-09 23:35:00,
2013-06-09 19:45:00,73.3,55.6,30.05,North,-999,0.0,0.0,54,0.00,,,-99.99,WeatherLink 5.7,2013-06-09 23:45:00,
2013-06-09 19:55:00,72.8,55.7,30.05,North,-999,0.0,0.0,55,0.00,,,-99.99,WeatherLink 5.7,2013-06-09 23:55:00,
2013-06-09 20:05:00,72.3,57.6,30.06,North,-999,0.0,0.0,60,0.00,,,-99.99,WeatherLink 5.7,2013-06-10 00:05:00,
2013-06-09 20:10:00,72.0,57.8,30.06,North,-999,0.0,0.0,61,0.00,,,-99.99,WeatherLink 5.7,2013-06-10 00:10:00,
2013-06-09 20:20:00,71.3,55.8,30.05,North,-999,0.0,0.0,58,0.00,,,-99.99,WeatherLink 5.7,2013-06-10 00:20:00,
2013-06-09 20:25:00,70.9,57.7,30.05,North,-999,0.0,0.0,63,0.00,,,-99.99,WeatherLink 5.7,2013-06-10 00:25:00,
2013-06-09 20:35:00,70.1,57.8,30.05,North,-999,0.0,0.0,65,0.00,,,-99.99,WeatherLink 5.7,2013-06-10 00:35:00,
2013-06-09 20:45:00,69.3,56.2,30.05,North,-999,0.0,0.0,63,0.00,,,-99.99,WeatherLink 5.7,2013-06-10 00:45:00,
2013-06-09 20:55:00,68.6,57.6,30.06,North,-999,0.0,0.0,68,0.00,,,-99.99,WeatherLink 5.7,2013-06-10 00:55:00,
2013-06-09 21:05:00,67.8,58.4,30.06,North,-999,0.0,0.0,72,0.00,,,-99.99,WeatherLink 5.7,2013-06-10 01:05:00,
2013-06-09 21:15:00,66.9,57.6,30.06,North,-999,0.0,0.0,72,0.00,,,-99.99,WeatherLink 5.7,2013-06-10 01:15:00,
2013-06-09 21:25:00,66.3,57.4,30.07,North,-999,0.0,0.0,73,0.00,,,-99.99,WeatherLink 5.7,2013-06-10 01:25:00,
2013-06-09 21:35:00,65.6,57.1,30.07,North,-999,0.0,0.0,74,0.00,,,-99.99,WeatherLink 5.7,2013-06-10 01:35:00,
2013-06-09 21:45:00,65.2,57.4,30.07,North,-999,0.0,0.0,76,0.00,,,-99.99,WeatherLink 5.7,2013-06-10 01:45:00,
2013-06-09 21:50:00,64.8,57.4,30.08,North,-999,0.0,0.0,77,0.00,,,-99.99,WeatherLink 5.7,2013-06-10 01:50:00,
2013-06-09 22:00:00,64.5,57.8,30.08,North,-999,0.0,0.0,79,0.00,,,-99.99,WeatherLink 5.7,2013-06-10 02:00:00,
2013-06-09 22:05:00,64.2,58.2,30.08,North,-999,0.0,0.0,81,0.00,,,-99.99,WeatherLink 5.7,2013-06-10 02:05:00,
2013-06-09 22:10:00,64.0,58.4,30.08,North,-999,0.0,0.0,82,0.00,,,-99.99,WeatherLink 5.7,2013-06-10 02:10:00,
2013-06-09 22:20:00,63.5,57.9,30.09,North,-999,0.0,0.0,82,0.00,,,-99.99,WeatherLink 5.7,2013-06-10 02:20:00,
2013-06-09 22:30:00,63.1,57.5,30.09,North,-999,0.0,0.0,82,0.00,,,-99.99,WeatherLink 5.7,2013-06-10 02:30:00,
2013-06-09 22:40:00,62.7,57.1,30.09,North,-999,0.0,0.0,82,0.00,,,-99.99,WeatherLink 5.7,2013-06-10 02:40:00,
2013-06-09 22:45:00,62.6,57.0,30.09,North,-999,0.0,0.0,82,0.00,,,-99.99,WeatherLink 5.7,2013-06-10 02:45:00,
2013-06-09 22:55:00,62.4,57.2,30.09,North,-999,0.0,0.0,83,0.00,,,-99.99,WeatherLink 5.7,2013-06-10 02:55:00,
2013-06-09 23:05:00,62.1,57.2,30.09,North,-999,0.0,0.0,84,0.00,,,-99.99,WeatherLink 5.7,2013-06-10 03:05:00,
2013-06-09 23:15:00,61.8,57.2,30.09,North,-999,0.0,0.0,85,0.00,,,-99.99,WeatherLink 5.7,2013-06-10 03:15:00,
2013-06-09 23:25:00,61.6,57.0,30.09,North,-999,0.0,0.0,85,0.00,,,-99.99,WeatherLink 5.7,2013-06-10 03:25:00,
2013-06-09 23:35:00,61.5,56.6,30.10,North,-999,0.0,0.0,84,0.00,,,-99.99,WeatherLink 5.7,2013-06-10 03:35:00,
2013-06-09 23:40:00,61.5,56.6,30.10,North,-999,0.0,0.0,84,0.00,,,-99.99,WeatherLink 5.7,2013-06-10 03:40:00,
2013-06-09 23:50:00,61.5,56.6,30.10,North,-999,0.0,0.0,84,0.00,,,-99.99,WeatherLink 5.7,2013-06-10 03:50:00,